sensor_id;sensor_type;location;lat;lon;timestamp;pressure;altitude;pressure_sealevel;temperature;humidity
66381;BME280;53177;52.648;1.214;2023-04-09T00:00:36;102185.72;;;6.66;90.09
66381;BME280;53177;52.648;1.214;2023-04-09T00:03:01;102192.97;;;6.29;92.40
66381;BME280;53177;52.648;1.214;2023-04-09T00:05:27;102188.56;;;6.28;92.64
66381;BME280;53177;52.648;1.214;2023-04-09T00:07:52;102191.09;;;6.22;92.82
66381;BME280;53177;52.648;1.214;2023-04-09T00:10:19;102178.59;;;6.11;94.13
66381;BME280;53177;52.648;1.214;2023-04-09T00:12:44;102181.09;;;6.50;92.56
66381;BME280;53177;52.648;1.214;2023-04-09T00:15:10;102176.88;;;6.59;91.78
66381;BME280;53177;52.648;1.214;2023-04-09T00:17:35;102179.13;;;6.40;92.68
66381;BME280;53177;52.648;1.214;2023-04-09T00:20:01;102182.16;;;6.61;92.41
66381;BME280;53177;52.648;1.214;2023-04-09T00:22:26;102173.38;;;6.62;91.86
66381;BME280;53177;52.648;1.214;2023-04-09T00:24:51;102187.53;;;6.68;91.74
66381;BME280;53177;52.648;1.214;2023-04-09T00:27:17;102184.97;;;6.71;91.47
66381;BME280;53177;52.648;1.214;2023-04-09T00:29:42;102183.81;;;6.56;92.17
66381;BME280;53177;52.648;1.214;2023-04-09T00:32:07;102181.97;;;6.50;91.83
66381;BME280;53177;52.648;1.214;2023-04-09T00:34:33;102185.31;;;6.42;92.46
66381;BME280;53177;52.648;1.214;2023-04-09T00:36:59;102177.41;;;6.40;93.18
66381;BME280;53177;52.648;1.214;2023-04-09T00:39:24;102178.50;;;6.53;92.63
66381;BME280;53177;52.648;1.214;2023-04-09T00:41:55;102167.06;;;6.03;94.74
66381;BME280;53177;52.648;1.214;2023-04-09T00:44:21;102174.16;;;6.07;94.53
66381;BME280;53177;52.648;1.214;2023-04-09T00:46:47;102172.56;;;6.13;93.99
66381;BME280;53177;52.648;1.214;2023-04-09T00:49:13;102173.53;;;6.20;93.86
66381;BME280;53177;52.648;1.214;2023-04-09T00:51:39;102174.50;;;6.25;93.85
66381;BME280;53177;52.648;1.214;2023-04-09T00:54:05;102175.53;;;5.88;95.63
66381;BME280;53177;52.648;1.214;2023-04-09T00:56:32;102166.97;;;5.97;95.78
66381;BME280;53177;52.648;1.214;2023-04-09T00:58:58;102165.75;;;6.26;94.11
66381;BME280;53177;52.648;1.214;2023-04-09T01:01:23;102158.69;;;6.22;93.60
66381;BME280;53177;52.648;1.214;2023-04-09T01:03:48;102156.28;;;6.34;93.38
66381;BME280;53177;52.648;1.214;2023-04-09T01:06:26;102155.53;;;6.41;93.21
66381;BME280;53177;52.648;1.214;2023-04-09T01:11:48;102157.63;;;6.60;92.23
66381;BME280;53177;52.648;1.214;2023-04-09T01:16:57;102145.19;;;6.50;93.19
66381;BME280;53177;52.648;1.214;2023-04-09T01:21:53;102149.25;;;6.31;92.15
66381;BME280;53177;52.648;1.214;2023-04-09T01:24:41;102144.97;;;6.40;92.32
66381;BME280;53177;52.648;1.214;2023-04-09T01:27:11;102149.44;;;6.44;91.24
66381;BME280;53177;52.648;1.214;2023-04-09T01:29:44;102150.72;;;6.17;94.03
66381;BME280;53177;52.648;1.214;2023-04-09T01:32:10;102141.75;;;6.05;94.88
66381;BME280;53177;52.648;1.214;2023-04-09T01:34:37;102132.78;;;5.94;95.67
66381;BME280;53177;52.648;1.214;2023-04-09T01:37:03;102130.91;;;5.86;96.30
66381;BME280;53177;52.648;1.214;2023-04-09T01:39:30;102132.09;;;6.04;95.48
66381;BME280;53177;52.648;1.214;2023-04-09T01:41:55;102132.78;;;5.95;95.69
66381;BME280;53177;52.648;1.214;2023-04-09T01:44:23;102124.75;;;5.87;95.60
66381;BME280;53177;52.648;1.214;2023-04-09T01:46:49;102125.66;;;5.86;96.13
66381;BME280;53177;52.648;1.214;2023-04-09T01:49:16;102127.31;;;5.84;95.48
66381;BME280;53177;52.648;1.214;2023-04-09T01:51:42;102125.94;;;6.02;94.92
66381;BME280;53177;52.648;1.214;2023-04-09T01:54:07;102124.31;;;6.10;94.18
66381;BME280;53177;52.648;1.214;2023-04-09T01:56:43;102128.63;;;6.06;93.51
66381;BME280;53177;52.648;1.214;2023-04-09T01:59:09;102126.97;;;6.11;94.02
66381;BME280;53177;52.648;1.214;2023-04-09T02:01:40;102125.38;;;6.21;93.66
66381;BME280;53177;52.648;1.214;2023-04-09T02:04:19;102129.03;;;6.27;93.52
66381;BME280;53177;52.648;1.214;2023-04-09T02:06:54;102121.94;;;6.23;93.09
66381;BME280;53177;52.648;1.214;2023-04-09T02:09:23;102117.41;;;6.13;92.51
66381;BME280;53177;52.648;1.214;2023-04-09T02:11:49;102119.94;;;6.10;93.56
66381;BME280;53177;52.648;1.214;2023-04-09T02:14:15;102124.53;;;6.20;93.29
66381;BME280;53177;52.648;1.214;2023-04-09T02:16:42;102127.31;;;6.29;93.47
66381;BME280;53177;52.648;1.214;2023-04-09T02:19:08;102127.56;;;6.45;93.08
66381;BME280;53177;52.648;1.214;2023-04-09T02:21:34;102114.13;;;6.26;93.15
66381;BME280;53177;52.648;1.214;2023-04-09T02:23:59;102119.94;;;6.10;92.92
66381;BME280;53177;52.648;1.214;2023-04-09T02:26:25;102110.31;;;6.09;92.92
66381;BME280;53177;52.648;1.214;2023-04-09T02:28:50;102112.34;;;6.24;93.54
66381;BME280;53177;52.648;1.214;2023-04-09T02:31:16;102112.25;;;6.19;94.58
66381;BME280;53177;52.648;1.214;2023-04-09T02:33:41;102112.06;;;6.10;95.28
66381;BME280;53177;52.648;1.214;2023-04-09T02:36:10;102110.34;;;6.11;95.00
66381;BME280;53177;52.648;1.214;2023-04-09T02:38:35;102114.81;;;6.16;93.87
66381;BME280;53177;52.648;1.214;2023-04-09T02:41:01;102108.72;;;6.19;93.45
66381;BME280;53177;52.648;1.214;2023-04-09T02:43:26;102112.25;;;6.19;93.46
66381;BME280;53177;52.648;1.214;2023-04-09T02:45:51;102108.00;;;6.27;93.15
66381;BME280;53177;52.648;1.214;2023-04-09T02:48:16;102094.94;;;6.30;92.70
66381;BME280;53177;52.648;1.214;2023-04-09T02:50:42;102090.47;;;6.26;93.49
66381;BME280;53177;52.648;1.214;2023-04-09T02:53:07;102082.75;;;6.37;93.11
66381;BME280;53177;52.648;1.214;2023-04-09T02:55:32;102088.75;;;6.28;92.46
66381;BME280;53177;52.648;1.214;2023-04-09T02:57:58;102085.44;;;6.39;92.88
66381;BME280;53177;52.648;1.214;2023-04-09T03:00:23;102077.31;;;6.25;92.59
66381;BME280;53177;52.648;1.214;2023-04-09T03:02:48;102079.88;;;6.20;92.99
66381;BME280;53177;52.648;1.214;2023-04-09T03:05:14;102081.78;;;6.32;92.36
66381;BME280;53177;52.648;1.214;2023-04-09T03:07:39;102072.16;;;6.31;92.68
66381;BME280;53177;52.648;1.214;2023-04-09T03:10:05;102067.41;;;6.09;92.44
66381;BME280;53177;52.648;1.214;2023-04-09T03:12:30;102067.56;;;6.16;92.52
66381;BME280;53177;52.648;1.214;2023-04-09T03:14:56;102078.16;;;6.22;92.63
66381;BME280;53177;52.648;1.214;2023-04-09T03:17:21;102070.94;;;6.11;93.52
66381;BME280;53177;52.648;1.214;2023-04-09T03:19:50;102068.47;;;6.20;93.16
66381;BME280;53177;52.648;1.214;2023-04-09T03:22:15;102064.00;;;6.13;92.86
66381;BME280;53177;52.648;1.214;2023-04-09T03:24:40;102061.41;;;6.17;92.69
66381;BME280;53177;52.648;1.214;2023-04-09T03:27:06;102072.59;;;6.04;92.95
66381;BME280;53177;52.648;1.214;2023-04-09T03:29:31;102064.84;;;6.12;93.31
66381;BME280;53177;52.648;1.214;2023-04-09T03:31:56;102055.91;;;6.01;93.15
66381;BME280;53177;52.648;1.214;2023-04-09T03:34:22;102053.22;;;5.98;93.00
66381;BME280;53177;52.648;1.214;2023-04-09T03:36:48;102048.91;;;6.01;93.25
66381;BME280;53177;52.648;1.214;2023-04-09T03:39:13;102052.97;;;5.85;94.16
66381;BME280;53177;52.648;1.214;2023-04-09T03:41:39;102046.09;;;5.91;93.69
66381;BME280;53177;52.648;1.214;2023-04-09T03:44:04;102056.72;;;5.98;94.38
66381;BME280;53177;52.648;1.214;2023-04-09T03:46:30;102060.47;;;6.14;93.36
66381;BME280;53177;52.648;1.214;2023-04-09T03:48:55;102049.09;;;6.12;93.71
66381;BME280;53177;52.648;1.214;2023-04-09T03:51:20;102047.97;;;5.98;94.01
66381;BME280;53177;52.648;1.214;2023-04-09T03:53:46;102045.38;;;6.01;93.38
66381;BME280;53177;52.648;1.214;2023-04-09T03:56:11;102046.31;;;6.04;92.99
66381;BME280;53177;52.648;1.214;2023-04-09T03:58:36;102047.66;;;5.84;93.06
66381;BME280;53177;52.648;1.214;2023-04-09T04:01:02;102044.38;;;5.93;93.20
66381;BME280;53177;52.648;1.214;2023-04-09T04:03:28;102045.25;;;5.93;93.44
66381;BME280;53177;52.648;1.214;2023-04-09T04:05:59;102040.69;;;5.84;93.74
66381;BME280;53177;52.648;1.214;2023-04-09T04:08:24;102037.78;;;5.68;95.00
66381;BME280;53177;52.648;1.214;2023-04-09T04:10:49;102033.66;;;5.82;94.41
66381;BME280;53177;52.648;1.214;2023-04-09T04:13:15;102036.19;;;5.76;94.82
66381;BME280;53177;52.648;1.214;2023-04-09T04:15:41;102027.28;;;5.69;94.88
66381;BME280;53177;52.648;1.214;2023-04-09T04:18:07;102033.81;;;5.45;96.26
66381;BME280;53177;52.648;1.214;2023-04-09T04:20:32;102033.81;;;5.45;96.55
66381;BME280;53177;52.648;1.214;2023-04-09T04:22:58;102031.44;;;5.58;96.32
66381;BME280;53177;52.648;1.214;2023-04-09T04:25:24;102034.25;;;5.67;94.86
66381;BME280;53177;52.648;1.214;2023-04-09T04:27:49;102029.19;;;5.76;94.78
66381;BME280;53177;52.648;1.214;2023-04-09T04:30:15;102023.66;;;5.63;95.21
66381;BME280;53177;52.648;1.214;2023-04-09T04:32:40;102037.44;;;5.51;95.19
66381;BME280;53177;52.648;1.214;2023-04-09T04:35:06;102031.19;;;5.43;95.56
66381;BME280;53177;52.648;1.214;2023-04-09T04:37:31;102030.59;;;5.59;95.61
66381;BME280;53177;52.648;1.214;2023-04-09T04:39:57;102031.28;;;5.49;95.43
66381;BME280;53177;52.648;1.214;2023-04-09T04:42:24;102029.91;;;5.23;96.35
66381;BME280;53177;52.648;1.214;2023-04-09T04:44:57;102028.38;;;5.34;96.27
66381;BME280;53177;52.648;1.214;2023-04-09T04:47:23;102023.97;;;5.33;96.05
66381;BME280;53177;52.648;1.214;2023-04-09T04:49:49;102022.47;;;5.46;95.98
66381;BME280;53177;52.648;1.214;2023-04-09T04:52:19;102030.38;;;5.47;95.04
66381;BME280;53177;52.648;1.214;2023-04-09T04:54:45;102023.66;;;5.18;97.35
66381;BME280;53177;52.648;1.214;2023-04-09T04:57:11;102028.19;;;5.25;96.56
66381;BME280;53177;52.648;1.214;2023-04-09T04:59:37;102021.84;;;5.14;97.35
66381;BME280;53177;52.648;1.214;2023-04-09T05:02:04;102029.59;;;5.08;97.63
66381;BME280;53177;52.648;1.214;2023-04-09T05:04:30;102027.69;;;5.01;98.06
66381;BME280;53177;52.648;1.214;2023-04-09T05:06:55;102031.19;;;5.01;97.36
66381;BME280;53177;52.648;1.214;2023-04-09T05:09:21;102030.72;;;5.20;96.96
66381;BME280;53177;52.648;1.214;2023-04-09T05:11:46;102030.06;;;5.30;95.96
66381;BME280;53177;52.648;1.214;2023-04-09T05:14:11;102031.19;;;5.01;97.41
66381;BME280;53177;52.648;1.214;2023-04-09T05:16:37;102025.97;;;5.03;97.58
66381;BME280;53177;52.648;1.214;2023-04-09T05:19:02;102034.03;;;5.12;96.64
66381;BME280;53177;52.648;1.214;2023-04-09T05:21:28;102022.28;;;4.93;96.88
66381;BME280;53177;52.648;1.214;2023-04-09T05:23:53;102025.78;;;4.94;97.69
66381;BME280;53177;52.648;1.214;2023-04-09T05:26:18;102015.63;;;5.09;96.58
66381;BME280;53177;52.648;1.214;2023-04-09T05:28:44;102017.22;;;5.01;97.01
66381;BME280;53177;52.648;1.214;2023-04-09T05:31:09;102016.53;;;5.09;96.29
66381;BME280;53177;52.648;1.214;2023-04-09T05:33:37;102021.78;;;5.11;95.72
66381;BME280;53177;52.648;1.214;2023-04-09T05:36:03;102023.50;;;5.10;96.12
66381;BME280;53177;52.648;1.214;2023-04-09T05:38:28;102021.75;;;5.09;96.63
66381;BME280;53177;52.648;1.214;2023-04-09T05:40:54;102026.06;;;5.07;97.06
66381;BME280;53177;52.648;1.214;2023-04-09T05:43:19;102021.72;;;5.08;96.89
66381;BME280;53177;52.648;1.214;2023-04-09T05:45:45;102010.38;;;5.09;97.27
66381;BME280;53177;52.648;1.214;2023-04-09T05:48:10;102013.91;;;5.11;97.47
66381;BME280;53177;52.648;1.214;2023-04-09T05:50:35;102010.38;;;5.09;97.48
66381;BME280;53177;52.648;1.214;2023-04-09T05:53:01;102013.13;;;5.15;97.41
66381;BME280;53177;52.648;1.214;2023-04-09T05:55:26;102015.78;;;5.16;97.06
66381;BME280;53177;52.648;1.214;2023-04-09T05:57:52;102016.63;;;5.15;96.44
66381;BME280;53177;52.648;1.214;2023-04-09T06:00:18;102014.81;;;5.11;95.79
66381;BME280;53177;52.648;1.214;2023-04-09T06:02:44;102019.31;;;5.18;96.50
66381;BME280;53177;52.648;1.214;2023-04-09T06:05:09;102017.78;;;5.29;96.20
66381;BME280;53177;52.648;1.214;2023-04-09T06:07:35;102021.41;;;5.36;97.23
66381;BME280;53177;52.648;1.214;2023-04-09T06:10:00;102019.59;;;5.32;96.68
66381;BME280;53177;52.648;1.214;2023-04-09T06:12:26;102025.91;;;5.42;96.87
66381;BME280;53177;52.648;1.214;2023-04-09T06:14:51;102026.91;;;5.48;96.13
66381;BME280;53177;52.648;1.214;2023-04-09T06:17:17;102027.88;;;5.55;95.66
66381;BME280;53177;52.648;1.214;2023-04-09T06:19:42;102024.31;;;5.50;97.44
66381;BME280;53177;52.648;1.214;2023-04-09T06:22:10;102026.91;;;5.48;95.93
66381;BME280;53177;52.648;1.214;2023-04-09T06:24:36;102029.63;;;5.53;98.22
66381;BME280;53177;52.648;1.214;2023-04-09T06:27:01;102027.00;;;5.53;97.39
66381;BME280;53177;52.648;1.214;2023-04-09T06:29:26;102027.19;;;5.63;97.42
66381;BME280;53177;52.648;1.214;2023-04-09T06:31:52;102031.88;;;5.81;96.83
66381;BME280;53177;52.648;1.214;2023-04-09T06:34:18;102023.19;;;5.85;95.94
66381;BME280;53177;52.648;1.214;2023-04-09T06:36:43;102022.53;;;5.95;96.20
66381;BME280;53177;52.648;1.214;2023-04-09T06:39:08;102018.78;;;5.84;97.48
66381;BME280;53177;52.648;1.214;2023-04-09T06:41:34;102018.06;;;5.90;96.01
66381;BME280;53177;52.648;1.214;2023-04-09T06:43:59;102016.41;;;5.95;96.62
66381;BME280;53177;52.648;1.214;2023-04-09T06:46:25;102017.22;;;5.92;96.25
66381;BME280;53177;52.648;1.214;2023-04-09T06:48:51;102016.59;;;6.07;95.91
66381;BME280;53177;52.648;1.214;2023-04-09T06:51:17;102016.75;;;6.16;95.52
66381;BME280;53177;52.648;1.214;2023-04-09T06:53:42;102008.25;;;6.32;94.75
66381;BME280;53177;52.648;1.214;2023-04-09T06:56:08;102012.84;;;6.45;94.38
66381;BME280;53177;52.648;1.214;2023-04-09T06:58:33;102019.03;;;6.49;94.87
66381;BME280;53177;52.648;1.214;2023-04-09T07:00:59;102011.75;;;6.31;94.55
66381;BME280;53177;52.648;1.214;2023-04-09T07:03:25;102012.94;;;6.54;94.33
66381;BME280;53177;52.648;1.214;2023-04-09T07:05:52;102012.41;;;6.76;94.70
66381;BME280;53177;52.648;1.214;2023-04-09T07:08:18;102012.28;;;6.69;94.68
66381;BME280;53177;52.648;1.214;2023-04-09T07:10:43;102007.25;;;6.84;93.85
66381;BME280;53177;52.648;1.214;2023-04-09T07:13:11;102013.31;;;6.80;94.27
66381;BME280;53177;52.648;1.214;2023-04-09T07:15:36;102013.59;;;6.98;93.25
66381;BME280;53177;52.648;1.214;2023-04-09T07:18:02;102013.75;;;7.13;93.13
66381;BME280;53177;52.648;1.214;2023-04-09T07:20:28;102007.84;;;7.32;92.70
66381;BME280;53177;52.648;1.214;2023-04-09T07:22:54;102008.66;;;7.24;92.36
66381;BME280;53177;52.648;1.214;2023-04-09T07:25:19;102001.84;;;7.47;92.27
66381;BME280;53177;52.648;1.214;2023-04-09T07:27:45;102000.06;;;7.42;90.20
66381;BME280;53177;52.648;1.214;2023-04-09T07:30:12;102003.31;;;7.21;91.19
66381;BME280;53177;52.648;1.214;2023-04-09T07:32:38;101999.94;;;7.31;91.34
66381;BME280;53177;52.648;1.214;2023-04-09T07:35:06;101994.75;;;7.37;90.41
66381;BME280;53177;52.648;1.214;2023-04-09T07:37:34;101995.50;;;7.28;90.74
66381;BME280;53177;52.648;1.214;2023-04-09T07:40:00;101998.03;;;7.16;90.98
66381;BME280;53177;52.648;1.214;2023-04-09T07:42:28;101998.06;;;7.21;92.01
66381;BME280;53177;52.648;1.214;2023-04-09T07:44:53;101998.41;;;7.50;92.07
66381;BME280;53177;52.648;1.214;2023-04-09T07:47:20;101995.91;;;7.63;89.75
66381;BME280;53177;52.648;1.214;2023-04-09T07:49:45;101991.50;;;7.65;89.96
66381;BME280;53177;52.648;1.214;2023-04-09T07:52:11;101983.72;;;7.74;89.25
66381;BME280;53177;52.648;1.214;2023-04-09T07:54:36;101987.47;;;8.01;88.83
66381;BME280;53177;52.648;1.214;2023-04-09T07:57:02;101989.38;;;8.20;88.51
66381;BME280;53177;52.648;1.214;2023-04-09T07:59:27;101987.56;;;8.14;86.44
66381;BME280;53177;52.648;1.214;2023-04-09T08:01:53;101988.34;;;8.01;86.50
66381;BME280;53177;52.648;1.214;2023-04-09T08:04:19;101984.00;;;8.09;87.12
66381;BME280;53177;52.648;1.214;2023-04-09T08:06:45;101974.53;;;8.32;87.10
66381;BME280;53177;52.648;1.214;2023-04-09T08:09:14;101979.00;;;8.38;86.65
66381;BME280;53177;52.648;1.214;2023-04-09T08:11:40;101965.00;;;8.54;86.07
66381;BME280;53177;52.648;1.214;2023-04-09T08:14:05;101957.13;;;8.56;85.33
66381;BME280;53177;52.648;1.214;2023-04-09T08:16:31;101948.41;;;8.70;85.57
66381;BME280;53177;52.648;1.214;2023-04-09T08:18:56;101942.28;;;8.80;85.11
66381;BME280;53177;52.648;1.214;2023-04-09T08:21:22;101942.31;;;8.88;82.34
66381;BME280;53177;52.648;1.214;2023-04-09T08:23:47;101936.19;;;8.89;81.65
66381;BME280;53177;52.648;1.214;2023-04-09T08:26:12;101934.44;;;9.02;82.54
66381;BME280;53177;52.648;1.214;2023-04-09T08:28:38;101939.78;;;9.24;82.64
66381;BME280;53177;52.648;1.214;2023-04-09T08:31:03;101939.81;;;9.32;81.84
66381;BME280;53177;52.648;1.214;2023-04-09T08:33:28;101931.94;;;9.52;82.16
66381;BME280;53177;52.648;1.214;2023-04-09T08:35:55;101932.81;;;9.69;81.92
66381;BME280;53177;52.648;1.214;2023-04-09T08:38:20;101922.25;;;9.84;81.44
66381;BME280;53177;52.648;1.214;2023-04-09T08:40:45;101926.66;;;9.97;80.20
66381;BME280;53177;52.648;1.214;2023-04-09T08:43:14;101920.50;;;10.15;79.49
66381;BME280;53177;52.648;1.214;2023-04-09T08:45:43;101918.72;;;10.20;79.29
66381;BME280;53177;52.648;1.214;2023-04-09T08:48:09;101923.97;;;10.35;79.00
66381;BME280;53177;52.648;1.214;2023-04-09T08:50:35;101916.91;;;10.31;77.73
66381;BME280;53177;52.648;1.214;2023-04-09T08:53:05;101917.78;;;10.41;77.89
66381;BME280;53177;52.648;1.214;2023-04-09T08:55:32;101915.06;;;10.66;78.22
66381;BME280;53177;52.648;1.214;2023-04-09T08:58:05;101902.69;;;10.74;77.10
66381;BME280;53177;52.648;1.214;2023-04-09T09:00:34;101901.66;;;11.01;77.99
66381;BME280;53177;52.648;1.214;2023-04-09T09:03:06;101894.63;;;11.00;76.24
66381;BME280;53177;52.648;1.214;2023-04-09T09:05:43;101908.56;;;11.28;76.03
66381;BME280;53177;52.648;1.214;2023-04-09T09:08:10;101915.56;;;11.35;75.52
66381;BME280;53177;52.648;1.214;2023-04-09T09:10:37;101918.25;;;11.34;74.75
66381;BME280;53177;52.648;1.214;2023-04-09T09:13:23;101914.56;;;11.51;73.70
66381;BME280;53177;52.648;1.214;2023-04-09T09:15:54;101917.03;;;11.80;74.55
66381;BME280;53177;52.648;1.214;2023-04-09T09:18:40;101916.88;;;11.94;73.15
66381;BME280;53177;52.648;1.214;2023-04-09T09:21:13;101918.53;;;12.10;71.44
66381;BME280;53177;52.648;1.214;2023-04-09T09:23:38;101919.19;;;12.32;70.01
66381;BME280;53177;52.648;1.214;2023-04-09T09:26:19;101918.94;;;12.54;69.70
66381;BME280;53177;52.648;1.214;2023-04-09T09:28:46;101916.22;;;12.59;69.64
66381;BME280;53177;52.648;1.214;2023-04-09T09:31:13;101924.19;;;12.59;68.42
66381;BME280;53177;52.648;1.214;2023-04-09T09:33:38;101921.41;;;12.69;66.24
66381;BME280;53177;52.648;1.214;2023-04-09T09:36:04;101916.75;;;12.87;70.41
66381;BME280;53177;52.648;1.214;2023-04-09T09:38:30;101917.78;;;12.77;64.08
66381;BME280;53177;52.648;1.214;2023-04-09T09:40:56;101922.69;;;13.05;67.58
66381;BME280;53177;52.648;1.214;2023-04-09T09:43:23;101926.94;;;13.22;66.12
66381;BME280;53177;52.648;1.214;2023-04-09T09:45:48;101924.97;;;13.34;64.77
66381;BME280;53177;52.648;1.214;2023-04-09T09:48:14;101920.00;;;13.11;63.18
66381;BME280;53177;52.648;1.214;2023-04-09T09:50:40;101923.25;;;13.33;62.38
66381;BME280;53177;52.648;1.214;2023-04-09T09:53:07;101911.44;;;13.51;64.36
66381;BME280;53177;52.648;1.214;2023-04-09T09:55:37;101911.06;;;13.74;62.13
66381;BME280;53177;52.648;1.214;2023-04-09T09:58:10;101905.50;;;13.89;62.47
66381;BME280;53177;52.648;1.214;2023-04-09T10:00:39;101908.97;;;13.92;61.53
66381;BME280;53177;52.648;1.214;2023-04-09T10:03:19;101906.66;;;13.73;55.18
66381;BME280;53177;52.648;1.214;2023-04-09T10:05:47;101913.25;;;14.01;59.64
66381;BME280;53177;52.648;1.214;2023-04-09T10:08:13;101904.91;;;14.21;60.41
66381;BME280;53177;52.648;1.214;2023-04-09T10:10:40;101902.94;;;14.32;61.44
66381;BME280;53177;52.648;1.214;2023-04-09T10:13:31;101902.47;;;14.56;61.98
66381;BME280;53177;52.648;1.214;2023-04-09T10:15:58;101898.44;;;14.34;60.06
66381;BME280;53177;52.648;1.214;2023-04-09T10:18:24;101897.06;;;14.60;60.83
66381;BME280;53177;52.648;1.214;2023-04-09T10:20:57;101890.44;;;14.81;63.65
66381;BME280;53177;52.648;1.214;2023-04-09T10:23:31;101892.28;;;14.78;61.64
66381;BME280;53177;52.648;1.214;2023-04-09T10:25:58;101894.59;;;14.93;61.24
66381;BME280;53177;52.648;1.214;2023-04-09T10:28:23;101889.22;;;14.96;61.03
66381;BME280;53177;52.648;1.214;2023-04-09T10:30:49;101882.84;;;15.03;60.81
66381;BME280;53177;52.648;1.214;2023-04-09T10:33:16;101882.03;;;14.99;56.41
66381;BME280;53177;52.648;1.214;2023-04-09T10:35:46;101885.91;;;14.42;61.18
66381;BME280;53177;52.648;1.214;2023-04-09T10:38:13;101883.72;;;14.16;61.17
66381;BME280;53177;52.648;1.214;2023-04-09T10:40:49;101883.19;;;14.88;66.84
66381;BME280;53177;52.648;1.214;2023-04-09T10:43:18;101879.59;;;15.27;60.18
66381;BME280;53177;52.648;1.214;2023-04-09T10:45:47;101871.47;;;15.33;59.08
66381;BME280;53177;52.648;1.214;2023-04-09T10:48:18;101865.75;;;15.48;59.37
66381;BME280;53177;52.648;1.214;2023-04-09T10:50:44;101855.00;;;15.53;62.76
66381;BME280;53177;52.648;1.214;2023-04-09T10:53:21;101861.75;;;15.68;64.93
66381;BME280;53177;52.648;1.214;2023-04-09T10:55:48;101862.22;;;15.49;62.27
66381;BME280;53177;52.648;1.214;2023-04-09T10:58:17;101856.88;;;15.85;63.03
66381;BME280;53177;52.648;1.214;2023-04-09T11:00:47;101846.91;;;15.57;57.86
66381;BME280;53177;52.648;1.214;2023-04-09T11:03:34;101845.13;;;15.58;64.41
66381;BME280;53177;52.648;1.214;2023-04-09T11:06:08;101848.28;;;15.74;63.88
66381;BME280;53177;52.648;1.214;2023-04-09T11:08:35;101850.91;;;16.07;64.58
66381;BME280;53177;52.648;1.214;2023-04-09T11:11:02;101855.81;;;16.23;61.21
66381;BME280;53177;52.648;1.214;2023-04-09T11:13:28;101851.28;;;15.60;60.42
66381;BME280;53177;52.648;1.214;2023-04-09T11:15:55;101854.72;;;15.28;55.09
66381;BME280;53177;52.648;1.214;2023-04-09T11:18:21;101862.81;;;15.24;60.99
66381;BME280;53177;52.648;1.214;2023-04-09T11:20:47;101864.47;;;14.91;60.88
66381;BME280;53177;52.648;1.214;2023-04-09T11:23:14;101859.53;;;15.51;67.23
66381;BME280;53177;52.648;1.214;2023-04-09T11:25:40;101847.69;;;15.95;62.84
66381;BME280;53177;52.648;1.214;2023-04-09T11:28:06;101837.22;;;16.20;64.82
66381;BME280;53177;52.648;1.214;2023-04-09T11:30:33;101824.06;;;15.46;58.54
66381;BME280;53177;52.648;1.214;2023-04-09T11:32:59;101825.75;;;15.51;63.73
66381;BME280;53177;52.648;1.214;2023-04-09T11:35:25;101827.38;;;15.89;61.81
66381;BME280;53177;52.648;1.214;2023-04-09T11:37:50;101811.06;;;16.32;69.63
66381;BME280;53177;52.648;1.214;2023-04-09T11:42:45;101793.41;;;16.87;66.07
66381;BME280;53177;52.648;1.214;2023-04-09T11:45:14;101802.41;;;16.84;62.66
66381;BME280;53177;52.648;1.214;2023-04-09T11:47:40;101788.63;;;16.69;57.40
66381;BME280;53177;52.648;1.214;2023-04-09T11:50:07;101784.03;;;17.01;66.96
66381;BME280;53177;52.648;1.214;2023-04-09T11:52:33;101784.56;;;17.13;65.33
66381;BME280;53177;52.648;1.214;2023-04-09T11:55:03;101787.72;;;17.25;63.52
66381;BME280;53177;52.648;1.214;2023-04-09T11:57:43;101779.09;;;17.16;60.14
66381;BME280;53177;52.648;1.214;2023-04-09T12:00:13;101785.84;;;16.42;56.76
66381;BME280;53177;52.648;1.214;2023-04-09T12:02:49;101782.28;;;16.73;62.67
66381;BME280;53177;52.648;1.214;2023-04-09T12:05:27;101773.06;;;17.11;66.68
66381;BME280;53177;52.648;1.214;2023-04-09T12:07:59;101776.94;;;17.27;58.38
66381;BME280;53177;52.648;1.214;2023-04-09T12:10:36;101777.56;;;16.51;54.84
66381;BME280;53177;52.648;1.214;2023-04-09T12:13:02;101767.84;;;16.20;58.38
66381;BME280;53177;52.648;1.214;2023-04-09T12:15:33;101779.28;;;16.83;69.14
66381;BME280;53177;52.648;1.214;2023-04-09T12:17:58;101760.91;;;17.00;63.18
66381;BME280;53177;52.648;1.214;2023-04-09T12:20:35;101765.09;;;16.81;57.48
66381;BME280;53177;52.648;1.214;2023-04-09T12:23:03;101764.16;;;15.93;56.52
66381;BME280;53177;52.648;1.214;2023-04-09T12:25:31;101762.06;;;16.04;58.78
66381;BME280;53177;52.648;1.214;2023-04-09T12:27:57;101768.31;;;16.63;64.57
66381;BME280;53177;52.648;1.214;2023-04-09T12:30:24;101769.47;;;16.25;57.88
66381;BME280;53177;52.648;1.214;2023-04-09T12:32:51;101762.38;;;16.53;58.72
66381;BME280;53177;52.648;1.214;2023-04-09T12:35:16;101760.06;;;16.71;57.88
66381;BME280;53177;52.648;1.214;2023-04-09T12:37:42;101753.16;;;16.34;62.23
66381;BME280;53177;52.648;1.214;2023-04-09T12:40:08;101745.41;;;16.56;64.34
66381;BME280;53177;52.648;1.214;2023-04-09T12:42:34;101746.09;;;16.63;57.55
66381;BME280;53177;52.648;1.214;2023-04-09T12:44:59;101744.81;;;16.16;64.54
66381;BME280;53177;52.648;1.214;2023-04-09T12:47:25;101737.19;;;16.90;69.68
66381;BME280;53177;52.648;1.214;2023-04-09T12:49:51;101734.63;;;16.87;64.46
66381;BME280;53177;52.648;1.214;2023-04-09T12:52:16;101729.75;;;16.73;64.10
66381;BME280;53177;52.648;1.214;2023-04-09T12:54:43;101730.75;;;16.40;70.53
66381;BME280;53177;52.648;1.214;2023-04-09T12:57:09;101732.56;;;16.38;61.89
66381;BME280;53177;52.648;1.214;2023-04-09T12:59:34;101710.75;;;16.25;67.22
66381;BME280;53177;52.648;1.214;2023-04-09T13:01:59;101711.56;;;16.27;60.20
66381;BME280;53177;52.648;1.214;2023-04-09T13:04:25;101712.84;;;16.43;63.57
66381;BME280;53177;52.648;1.214;2023-04-09T13:06:50;101707.91;;;16.87;59.76